Time;durP1;ratioP1;P1;durP2;ratioP2;P2;SDS_P1;SDS_P2;PMS_P1;PMS_P2;Temp;Humidity;BMP_temperature;BMP_pressure;BME280_temperature;BME280_humidity;BME280_pressure;Samples;Min_cycle;Max_cycle;Signal;HPM_P1;HPM_P2
2020/12/14 00:01:59;;;;;;;25.77;16.00;;;;;;;7.22;85.63;99884.91;5047828;28;20559;-81
2020/12/14 00:04:24;;;;;;;11.45;7.25;;;;;;;7.31;85.75;99884.41;5048257;28;20525;-81
2020/12/14 00:06:51;;;;;;;12.10;8.80;;;;;;;7.34;85.63;99894.78;5031451;28;20514;-87
2020/12/14 00:09:17;;;;;;;9.35;6.07;;;;;;;7.35;85.92;99891.41;5031562;28;20179;-78
2020/12/14 00:11:42;;;;;;;9.70;6.57;;;;;;;7.29;86.28;99890.34;5031145;28;20127;-79
2020/12/14 00:14:08;;;;;;;8.52;6.05;;;;;;;7.43;86.14;99911.44;5048182;28;20414;-81
2020/12/14 00:16:33;;;;;;;10.50;7.65;;;;;;;7.45;85.68;99903.78;5047534;28;20455;-80
2020/12/14 00:18:59;;;;;;;10.63;6.82;;;;;;;7.60;85.51;99911.22;5048057;28;20033;-72
2020/12/14 00:21:24;;;;;;;10.13;6.40;;;;;;;7.37;85.04;99874.38;5031167;28;20131;-72
2020/12/14 00:23:51;;;;;;;13.48;5.93;;;;;;;7.53;83.98;99906.69;5047923;28;20033;-78
2020/12/14 00:26:18;;;;;;;11.07;6.25;;;;;;;7.55;83.87;99910.16;5051426;28;20454;-75
2020/12/14 00:28:47;;;;;;;10.65;5.95;;;;;;;7.42;84.17;99888.28;5033640;28;20514;-79
2020/12/14 00:31:14;;;;;;;10.02;5.90;;;;;;;7.39;83.67;99893.25;5051492;28;20036;-82
2020/12/14 00:33:39;;;;;;;11.02;5.13;;;;;;;7.56;81.73;99919.63;5068734;28;20063;-83
2020/12/14 00:36:07;;;;;;;11.20;5.18;;;;;;;7.59;80.82;99927.50;5074085;28;20029;-80
2020/12/14 00:38:32;;;;;;;9.40;5.07;;;;;;;7.65;81.36;99926.84;5073216;28;20478;-81
2020/12/14 00:40:58;;;;;;;9.38;4.80;;;;;;;7.66;80.85;99926.03;5072842;28;20035;-79
2020/12/14 00:43:23;;;;;;;7.90;4.65;;;;;;;7.64;80.66;99937.91;5071732;28;20043;-77
2020/12/14 00:45:49;;;;;;;12.55;5.20;;;;;;;7.58;80.62;99939.44;5073360;28;20417;-84
2020/12/14 00:48:14;;;;;;;10.85;5.28;;;;;;;7.53;79.56;99942.66;5073607;28;20397;-79
2020/12/14 00:50:40;;;;;;;9.30;4.25;;;;;;;7.51;79.34;99941.69;5071870;28;20488;-85
2020/12/14 00:53:05;;;;;;;9.25;4.70;;;;;;;7.50;79.94;99947.66;5073954;28;20348;-80
2020/12/14 00:55:30;;;;;;;8.95;4.50;;;;;;;7.51;80.36;99934.84;5057527;28;20025;-87
2020/12/14 00:57:56;;;;;;;9.35;5.53;;;;;;;7.36;80.32;99911.13;5054815;28;20713;-84
2020/12/14 01:00:21;;;;;;;21.92;12.77;;;;;;;7.43;80.38;99941.41;5055478;28;20426;-79
2020/12/14 01:02:47;;;;;;;7.78;4.50;;;;;;;7.35;80.63;99928.25;5048922;28;20040;-82
2020/12/14 01:05:12;;;;;;;7.90;6.32;;;;;;;7.39;81.10;99944.63;5028464;28;20155;-84
2020/12/14 01:07:38;;;;;;;7.47;4.15;;;;;;;7.22;81.53;99913.13;5033874;28;20095;-85
2020/12/14 01:10:03;;;;;;;6.05;4.60;;;;;;;7.36;81.66;99952.22;5033361;28;20033;-79
2020/12/14 01:12:29;;;;;;;7.75;4.78;;;;;;;7.33;82.30;99937.56;5045412;28;20041;-78
2020/12/14 01:14:54;;;;;;;7.18;5.60;;;;;;;7.20;81.87;99925.91;5046512;28;20037;-75
2020/12/14 01:17:20;;;;;;;7.22;4.63;;;;;;;7.37;81.76;99942.00;5050285;28;20052;-75
2020/12/14 01:19:45;;;;;;;7.28;5.03;;;;;;;7.28;82.06;99949.34;5050465;28;20025;-75
2020/12/14 01:22:11;;;;;;;6.57;4.90;;;;;;;7.15;82.41;99947.94;5045490;28;20029;-76
2020/12/14 01:24:36;;;;;;;6.85;4.93;;;;;;;7.15;83.27;99939.34;5035732;28;20036;-72
2020/12/14 01:27:01;;;;;;;7.82;5.50;;;;;;;7.25;83.52;99938.94;5049686;28;20066;-77
2020/12/14 01:29:27;;;;;;;11.25;7.85;;;;;;;7.17;83.50;99930.91;5047451;28;20569;-76
2020/12/14 01:31:52;;;;;;;7.72;5.25;;;;;;;7.10;83.77;99936.59;5044735;28;20025;-75
2020/12/14 01:34:18;;;;;;;11.15;4.65;;;;;;;7.20;84.15;99936.19;5061125;28;20414;-82
2020/12/14 01:36:47;;;;;;;6.97;4.93;;;;;;;7.21;83.90;99931.91;5072020;28;20103;-78
2020/12/14 01:39:12;;;;;;;6.68;4.93;;;;;;;7.18;83.71;99942.94;5072614;28;20028;-81
2020/12/14 01:41:39;;;;;;;7.00;4.40;;;;;;;7.07;83.55;99939.03;5022640;28;20511;-81
2020/12/14 01:44:04;;;;;;;7.57;6.45;;;;;;;7.05;83.31;99927.81;5029444;28;20029;-84
2020/12/14 01:46:31;;;;;;;7.88;4.88;;;;;;;6.99;83.46;99918.19;5022614;28;20053;-82
2020/12/14 01:49:00;;;;;;;7.68;5.03;;;;;;;6.82;83.70;99899.50;5012338;28;20029;-83
2020/12/14 01:51:36;;;;;;;6.97;4.60;;;;;;;6.92;84.16;99918.75;5012413;28;20427;-81
2020/12/14 01:54:38;;;;;;;6.93;4.60;;;;;;;6.96;84.67;99923.19;5026563;28;20045;-80
2020/12/14 01:57:03;;;;;;;5.75;3.97;;;;;;;6.93;84.00;99923.94;4946029;28;20035;-81
2020/12/14 01:59:29;;;;;;;7.93;7.07;;;;;;;7.02;83.29;99922.56;4950671;28;20516;-85
2020/12/14 02:01:54;;;;;;;6.90;4.65;;;;;;;6.97;83.44;99930.06;4935052;28;20612;-83
2020/12/14 02:04:20;;;;;;;11.98;10.77;;;;;;;6.90;82.87;99922.91;4935578;28;20622;-82
2020/12/14 02:06:45;;;;;;;7.40;5.28;;;;;;;6.89;83.46;99927.19;4952300;28;20043;-86
2020/12/14 02:09:11;;;;;;;7.85;6.40;;;;;;;6.85;83.37;99926.97;4935489;28;20478;-86
2020/12/14 02:11:36;;;;;;;6.35;4.72;;;;;;;6.71;83.71;99928.94;4953364;28;20118;-82
2020/12/14 02:14:02;;;;;;;6.75;4.25;;;;;;;6.67;83.43;99916.78;4982534;28;20504;-83
2020/12/14 02:16:28;;;;;;;5.30;3.40;;;;;;;6.77;82.76;99921.53;4955339;28;20035;-82
2020/12/14 02:18:53;;;;;;;8.73;5.18;;;;;;;6.56;82.17;99903.50;4971208;28;20046;-83
2020/12/14 02:21:19;;;;;;;5.20;3.47;;;;;;;6.61;82.80;99920.84;4932310;29;20395;-84
2020/12/14 02:23:44;;;;;;;4.80;3.28;;;;;;;6.52;81.87;99901.59;4916543;29;20043;-82
2020/12/14 02:26:30;;;;;;;4.20;2.50;;;;;;;6.58;81.34;99927.50;4929891;29;20482;-84
2020/12/14 02:28:55;;;;;;;4.50;2.90;;;;;;;6.61;80.39;99931.09;4904647;29;20095;-83
2020/12/14 02:31:20;;;;;;;5.88;4.55;;;;;;;6.65;80.79;99937.25;4942787;28;20093;-79
2020/12/14 02:33:46;;;;;;;5.03;2.97;;;;;;;6.60;80.74;99921.66;4970287;28;20525;-83
2020/12/14 02:36:11;;;;;;;7.53;5.57;;;;;;;6.52;79.95;99917.88;4970232;28;20441;-84
2020/12/14 02:38:37;;;;;;;3.97;2.67;;;;;;;6.56;80.72;99924.03;4961737;28;20118;-83
2020/12/14 02:41:02;;;;;;;4.93;2.90;;;;;;;6.51;81.02;99908.44;4967390;28;20106;-82
2020/12/14 02:43:28;;;;;;;5.32;2.55;;;;;;;6.44;80.40;99908.97;4954259;28;20097;-85
2020/12/14 02:45:53;;;;;;;5.50;3.25;;;;;;;6.54;81.61;99933.31;4967342;28;20657;-83
2020/12/14 02:48:19;;;;;;;9.07;4.30;;;;;;;6.50;81.91;99923.75;4970645;28;20039;-81
2020/12/14 02:50:44;;;;;;;14.07;9.10;;;;;;;6.53;82.28;99927.34;4954004;28;20037;-79
2020/12/14 02:53:10;;;;;;;13.82;7.63;;;;;;;6.50;82.51;99929.75;4996558;28;20040;-80
2020/12/14 02:55:35;;;;;;;22.45;14.73;;;;;;;6.41;82.24;99921.66;4989463;28;20034;-80
2020/12/14 02:58:00;;;;;;;12.23;7.75;;;;;;;6.55;82.21;99937.66;5033895;28;20037;-80
2020/12/14 03:00:26;;;;;;;13.68;12.07;;;;;;;6.44;82.67;99932.94;5050989;28;20036;-80
2020/12/14 03:02:51;;;;;;;7.93;5.78;;;;;;;6.48;82.14;99941.66;5051732;28;20039;-80
2020/12/14 03:05:17;;;;;;;20.20;18.10;;;;;;;6.44;82.44;99940.63;5033155;28;20033;-80
2020/12/14 03:07:42;;;;;;;8.18;6.68;;;;;;;6.45;82.93;99946.63;5045036;28;20075;-83
2020/12/14 03:10:08;;;;;;;11.95;7.80;;;;;;;6.41;82.60;99937.03;5051300;28;20025;-85
2020/12/14 03:12:33;;;;;;;14.10;9.00;;;;;;;6.45;83.19;99946.63;5031863;28;20457;-80
2020/12/14 03:15:00;;;;;;;13.85;9.90;;;;;;;6.50;83.09;99940.00;5032812;28;20064;-79
2020/12/14 03:17:26;;;;;;;15.82;10.90;;;;;;;6.47;83.14;99948.44;5033205;28;20028;-80
2020/12/14 03:19:54;;;;;;;7.72;4.85;;;;;;;6.41;83.36;99943.03;5050839;28;20458;-79
2020/12/14 03:22:19;;;;;;;11.73;10.43;;;;;;;6.44;83.86;99947.41;5051337;28;20037;-81
2020/12/14 03:24:45;;;;;;;5.50;3.60;;;;;;;6.50;83.29;99957.09;5051021;28;20467;-78
2020/12/14 03:27:11;;;;;;;11.65;10.25;;;;;;;6.41;83.63;99949.84;5033246;28;20526;-80
2020/12/14 03:29:36;;;;;;;6.25;4.28;;;;;;;6.43;83.01;99955.91;5050376;28;20033;-79
2020/12/14 03:32:02;;;;;;;8.48;6.03;;;;;;;6.38;82.94;99971.13;5033138;28;20116;-78
2020/12/14 03:34:27;;;;;;;5.55;4.03;;;;;;;6.31;82.56;99964.81;5046151;28;20049;-79
2020/12/14 03:36:53;;;;;;;7.47;5.07;;;;;;;6.26;83.03;99963.72;5069476;28;20441;-78
2020/12/14 03:39:18;;;;;;;8.93;5.93;;;;;;;6.25;82.91;99959.41;5071026;28;20402;-85
2020/12/14 03:41:44;;;;;;;13.15;8.40;;;;;;;6.20;82.62;99973.69;5071078;28;20463;-78
2020/12/14 03:44:09;;;;;;;8.50;5.68;;;;;;;6.17;83.49;99981.25;5071061;28;20466;-77
2020/12/14 03:46:35;;;;;;;7.38;4.90;;;;;;;6.14;83.01;99974.31;5069354;28;20443;-79
2020/12/14 03:49:01;;;;;;;9.00;6.38;;;;;;;6.13;83.20;99980.22;5071011;28;20052;-80
2020/12/14 03:51:27;;;;;;;11.20;5.68;;;;;;;6.21;81.87;99990.84;5069445;28;20024;-80
2020/12/14 03:53:53;;;;;;;8.45;5.60;;;;;;;6.14;82.44;99992.25;5070814;28;20028;-80
2020/12/14 03:56:19;;;;;;;10.55;6.97;;;;;;;6.15;82.38;100003.34;5070742;28;20085;-80
2020/12/14 03:58:45;;;;;;;10.65;5.88;;;;;;;6.16;82.92;100007.69;5069126;28;20032;-79
2020/12/14 04:01:12;;;;;;;9.80;6.35;;;;;;;5.90;82.92;99962.84;5073018;28;20024;-79
2020/12/14 04:03:38;;;;;;;9.63;5.85;;;;;;;6.17;82.98;100009.44;5074504;28;20020;-78
2020/12/14 04:06:03;;;;;;;9.38;6.90;;;;;;;6.11;83.13;100007.47;5074903;28;20023;-80
2020/12/14 04:08:29;;;;;;;7.72;5.15;;;;;;;6.14;83.31;100004.16;5074503;28;20082;-79
2020/12/14 04:10:54;;;;;;;7.50;5.32;;;;;;;6.12;82.94;100013.47;5072924;28;20021;-79
2020/12/14 04:13:20;;;;;;;13.93;12.40;;;;;;;6.10;83.15;100018.50;5072975;28;20028;-79
2020/12/14 04:15:45;;;;;;;7.45;4.95;;;;;;;5.94;82.81;100006.66;5072842;28;20099;-84
2020/12/14 04:18:11;;;;;;;8.75;5.95;;;;;;;5.95;83.74;100008.38;5074499;28;20028;-78
2020/12/14 04:20:36;;;;;;;9.60;5.88;;;;;;;5.66;83.97;99973.69;5073105;28;20032;-84
2020/12/14 04:23:01;;;;;;;13.02;10.55;;;;;;;5.88;83.96;100018.25;5074118;28;20471;-80
2020/12/14 04:25:27;;;;;;;8.82;5.90;;;;;;;5.83;84.49;100020.59;5074077;28;20078;-78
2020/12/14 04:27:52;;;;;;;10.27;7.40;;;;;;;5.77;83.60;100010.94;5073689;28;20079;-79
2020/12/14 04:30:18;;;;;;;8.80;6.22;;;;;;;5.81;84.69;100035.88;5073013;28;20066;-79
2020/12/14 04:32:44;;;;;;;10.23;6.22;;;;;;;5.73;85.14;100016.72;5074022;28;20103;-80
2020/12/14 04:35:10;;;;;;;9.50;5.75;;;;;;;5.80;85.60;100040.94;5073405;28;20102;-81
2020/12/14 04:37:35;;;;;;;14.93;9.27;;;;;;;5.74;86.48;100040.66;5068761;28;20020;-80
2020/12/14 04:40:01;;;;;;;11.43;7.68;;;;;;;5.77;86.38;100049.38;5074200;28;20040;-77
2020/12/14 04:42:28;;;;;;;12.93;10.48;;;;;;;5.63;86.25;100041.00;5073185;28;20032;-79
2020/12/14 04:44:54;;;;;;;11.13;7.20;;;;;;;5.80;86.86;100053.75;5073941;28;20033;-77
2020/12/14 04:47:21;;;;;;;135.55;122.63;;;;;;;5.76;86.84;100051.84;5073689;28;20106;-80
2020/12/14 04:49:48;;;;;;;11.68;8.43;;;;;;;5.82;86.55;100062.41;5073652;28;20024;-84
2020/12/14 04:52:16;;;;;;;45.90;41.53;;;;;;;5.67;86.47;100045.47;5073653;28;20036;-80
2020/12/14 04:54:46;;;;;;;10.60;8.02;;;;;;;5.73;87.39;100061.94;5055474;28;20123;-80
2020/12/14 04:57:13;;;;;;;10.68;6.57;;;;;;;5.62;87.02;100058.81;5055356;28;20036;-80
2020/12/14 04:59:39;;;;;;;8.90;5.88;;;;;;;5.62;87.37;100064.84;5073433;28;20082;-80
2020/12/14 05:02:07;;;;;;;9.15;6.07;;;;;;;5.69;87.62;100083.09;5055436;28;20060;-79
2020/12/14 05:04:33;;;;;;;9.43;6.18;;;;;;;5.64;86.51;100063.22;5073617;28;20474;-84
2020/12/14 05:06:58;;;;;;;10.35;5.78;;;;;;;5.63;87.12;100068.28;5073253;28;20085;-78
2020/12/14 05:09:24;;;;;;;10.18;5.95;;;;;;;5.64;87.40;100060.66;5055016;28;20410;-77
2020/12/14 05:11:49;;;;;;;9.68;6.35;;;;;;;5.69;87.89;100060.91;5072038;28;20106;-79
2020/12/14 05:14:20;;;;;;;8.68;5.30;;;;;;;5.71;88.02;100071.22;5073386;28;20474;-80
2020/12/14 05:16:47;;;;;;;8.15;5.43;;;;;;;5.78;87.45;100081.88;5073413;28;20051;-79
2020/12/14 05:19:25;;;;;;;11.20;6.75;;;;;;;5.71;87.89;100078.91;5073124;28;20082;-81
2020/12/14 05:21:59;;;;;;;10.32;6.55;;;;;;;5.65;88.15;100064.13;5055031;28;20026;-80
2020/12/14 05:24:32;;;;;;;35.90;32.70;;;;;;;5.57;88.01;100081.66;5073063;28;20044;-80
2020/12/14 05:26:59;;;;;;;6.97;4.63;;;;;;;5.61;88.21;100077.59;5073057;28;20029;-78
2020/12/14 05:29:30;;;;;;;7.80;4.38;;;;;;;5.57;88.37;100084.22;5073044;28;20035;-78
2020/12/14 05:32:11;;;;;;;7.63;4.47;;;;;;;5.55;88.24;100082.38;5055101;28;20016;-81
2020/12/14 05:34:41;;;;;;;8.27;4.43;;;;;;;5.52;88.66;100078.00;5072451;28;20059;-78
2020/12/14 05:37:09;;;;;;;12.07;5.47;;;;;;;5.53;89.14;100084.84;5071550;28;20398;-80
2020/12/14 05:39:37;;;;;;;10.75;6.57;;;;;;;5.45;89.14;100081.91;5072723;28;20044;-79
2020/12/14 05:42:18;;;;;;;8.48;4.60;;;;;;;5.53;89.37;100097.66;5072941;28;20083;-79
2020/12/14 05:44:46;;;;;;;9.50;8.00;;;;;;;5.45;89.26;100089.59;5072516;28;20028;-79
2020/12/14 05:47:29;;;;;;;8.43;5.32;;;;;;;5.54;89.60;100104.53;5072557;28;20029;-77
2020/12/14 05:49:57;;;;;;;95.38;87.63;;;;;;;5.60;89.49;100114.22;5072174;28;20486;-82
2020/12/14 05:52:23;;;;;;;7.88;5.57;;;;;;;5.63;89.43;100111.81;5072523;28;20033;-79
2020/12/14 05:54:55;;;;;;;6.97;4.60;;;;;;;5.66;89.58;100114.53;5072856;28;20459;-77
2020/12/14 05:57:33;;;;;;;8.15;4.80;;;;;;;5.66;90.04;100115.41;5072034;28;20028;-77
2020/12/14 06:00:01;;;;;;;9.07;4.80;;;;;;;5.58;90.08;100108.13;5054400;28;20028;-79
2020/12/14 06:02:27;;;;;;;19.40;11.45;;;;;;;5.59;90.36;100110.75;5054448;28;20028;-82
2020/12/14 06:04:57;;;;;;;55.92;41.47;;;;;;;5.64;90.39;100119.56;5072398;28;20035;-79
2020/12/14 06:07:25;;;;;;;9.45;5.72;;;;;;;5.60;90.91;100117.66;5054210;28;20387;-77
2020/12/14 06:10:04;;;;;;;22.42;18.77;;;;;;;5.47;90.64;100081.97;5070677;28;20406;-80
2020/12/14 06:12:32;;;;;;;11.38;7.70;;;;;;;5.69;90.95;100126.63;5072141;28;20039;-81
2020/12/14 06:15:06;;;;;;;11.32;6.85;;;;;;;5.67;90.99;100119.72;5071899;28;20116;-79
2020/12/14 06:17:32;;;;;;;10.10;6.35;;;;;;;5.63;91.71;100133.19;5071730;28;20035;-79
2020/12/14 06:20:12;;;;;;;10.70;6.38;;;;;;;5.70;91.77;100130.94;5072059;28;20056;-79
2020/12/14 06:22:43;;;;;;;10.95;6.10;;;;;;;5.64;91.52;100122.13;5053534;28;20032;-78
2020/12/14 06:25:09;;;;;;;11.45;7.93;;;;;;;5.53;91.65;100107.03;5071484;28;20028;-82
2020/12/14 06:27:34;;;;;;;9.60;6.32;;;;;;;5.62;91.44;100115.16;5074628;28;20032;-78
2020/12/14 06:30:00;;;;;;;9.98;6.53;;;;;;;5.66;91.62;100132.47;5051224;28;20040;-80
2020/12/14 06:32:40;;;;;;;10.20;5.90;;;;;;;5.71;91.28;100127.56;5071422;28;20028;-78
2020/12/14 06:35:14;;;;;;;11.90;9.80;;;;;;;5.55;90.89;100113.13;5058816;28;20045;-81
2020/12/14 06:37:54;;;;;;;9.23;6.32;;;;;;;5.68;91.62;100125.72;5067227;28;20414;-77
2020/12/14 06:40:20;;;;;;;9.75;7.60;;;;;;;5.74;91.47;100137.97;5071550;28;20038;-80
2020/12/14 06:42:47;;;;;;;6.85;4.38;;;;;;;5.74;91.24;100136.28;5071736;28;20032;-78
2020/12/14 06:45:15;;;;;;;126.10;114.90;;;;;;;5.81;90.86;100140.91;5070406;28;20107;-81
2020/12/14 06:47:46;;;;;;;9.07;5.05;;;;;;;5.75;90.98;100135.47;5049682;28;20483;-78
2020/12/14 06:50:28;;;;;;;8.15;4.93;;;;;;;5.84;91.01;100137.63;5052525;28;20039;-77
2020/12/14 06:52:56;;;;;;;8.20;5.13;;;;;;;5.88;90.82;100141.22;5068857;28;20028;-80
2020/12/14 06:55:41;;;;;;;7.25;4.63;;;;;;;5.86;91.56;100151.41;5070013;28;20105;-79
2020/12/14 06:58:09;;;;;;;7.80;4.55;;;;;;;5.79;91.15;100150.19;5070429;28;20089;-80
2020/12/14 07:00:35;;;;;;;14.60;8.27;;;;;;;5.85;91.47;100159.88;5071003;28;20062;-80
2020/12/14 07:03:00;;;;;;;6.13;4.35;;;;;;;5.74;91.25;100140.53;5069039;28;20051;-79
2020/12/14 07:05:29;;;;;;;6.40;4.85;;;;;;;5.91;91.14;100165.31;5051625;28;20507;-79
2020/12/14 07:07:55;;;;;;;6.80;4.32;;;;;;;5.85;91.51;100162.44;5053679;28;20074;-79
2020/12/14 07:10:28;;;;;;;6.90;4.40;;;;;;;5.89;91.85;100161.78;5069353;28;20024;-80
2020/12/14 07:12:54;;;;;;;10.38;9.38;;;;;;;5.90;91.46;100166.13;5038156;28;20028;-80
2020/12/14 07:15:37;;;;;;;7.05;3.90;;;;;;;5.70;91.61;100136.06;5069532;28;20036;-80
2020/12/14 07:18:11;;;;;;;5.53;3.50;;;;;;;5.82;91.91;100175.13;5068752;28;20077;-80
2020/12/14 07:20:50;;;;;;;8.88;5.25;;;;;;;5.92;91.86;100181.56;5068626;28;20085;-80
2020/12/14 07:23:18;;;;;;;36.10;19.92;;;;;;;5.95;91.54;100184.31;5070066;28;20028;-80
2020/12/14 07:25:48;;;;;;;8.43;4.00;;;;;;;5.98;91.51;100193.06;5052296;28;20513;-80
2020/12/14 07:28:14;;;;;;;7.47;6.78;;;;;;;5.97;91.59;100181.00;5052481;28;20048;-80
2020/12/14 07:30:40;;;;;;;7.38;2.65;;;;;;;5.97;91.39;100186.13;5069262;28;20036;-80
2020/12/14 07:33:05;;;;;;;5.43;3.08;;;;;;;5.99;91.76;100187.13;5051074;28;20021;-79
2020/12/14 07:35:31;;;;;;;5.90;3.20;;;;;;;6.05;91.68;100188.25;5069360;28;20182;-80
2020/12/14 07:37:56;;;;;;;7.45;6.70;;;;;;;6.08;91.71;100194.41;5068323;28;20078;-79
2020/12/14 07:40:22;;;;;;;7.35;6.10;;;;;;;6.15;91.45;100203.28;5068703;28;20101;-79
2020/12/14 07:42:47;;;;;;;4.28;2.90;;;;;;;6.16;91.77;100202.47;5070321;28;20103;-79
2020/12/14 07:45:17;;;;;;;4.80;3.00;;;;;;;6.09;91.92;100203.88;5069258;28;20020;-80
2020/12/14 07:47:44;;;;;;;3.95;2.53;;;;;;;6.01;91.40;100176.97;5069468;28;20021;-80
2020/12/14 07:50:17;;;;;;;5.13;2.40;;;;;;;6.10;91.48;100200.47;5052573;28;20085;-80
2020/12/14 07:52:43;;;;;;;4.72;2.33;;;;;;;6.07;91.92;100194.31;5069673;28;20037;-80
2020/12/14 07:55:10;;;;;;;4.10;2.88;;;;;;;6.13;92.17;100208.34;5068738;28;20035;-80
2020/12/14 07:57:38;;;;;;;7.90;7.20;;;;;;;6.13;91.58;100208.34;5026047;28;20565;-80
2020/12/14 08:00:09;;;;;;;4.03;2.88;;;;;;;6.07;91.79;100196.88;5025726;28;20120;-80
2020/12/14 08:02:34;;;;;;;3.05;2.03;;;;;;;6.07;91.29;100204.56;5025476;28;20057;-80
2020/12/14 08:05:03;;;;;;;26.45;23.80;;;;;;;6.00;91.47;100193.13;5042782;28;20025;-80
2020/12/14 08:07:45;;;;;;;6.43;4.22;;;;;;;6.05;91.88;100201.06;5046119;28;20041;-80
2020/12/14 08:10:11;;;;;;;37.92;34.15;;;;;;;6.17;91.81;100223.84;5030035;28;20029;-80
2020/12/14 08:12:39;;;;;;;13.25;11.27;;;;;;;6.13;91.64;100216.03;5046413;28;20044;-79
2020/12/14 08:15:08;;;;;;;7.53;5.95;;;;;;;6.26;92.20;100220.06;5030214;28;20034;-80
2020/12/14 08:17:36;;;;;;;6.22;3.42;;;;;;;6.24;91.96;100224.25;5046317;28;20512;-79
2020/12/14 08:20:05;;;;;;;5.57;2.65;;;;;;;6.37;91.75;100222.28;5046730;28;20084;-80
2020/12/14 08:22:32;;;;;;;9.20;4.78;;;;;;;6.38;92.06;100224.94;5047311;28;20488;-80
2020/12/14 08:24:58;;;;;;;10.85;9.48;;;;;;;6.40;91.72;100230.16;5047656;28;20040;-79
2020/12/14 08:27:45;;;;;;;4.43;3.45;;;;;;;6.35;91.16;100226.47;5046216;28;20029;-80
2020/12/14 08:30:10;;;;;;;11.00;8.27;;;;;;;6.05;90.98;100173.75;5067710;28;20024;-80
2020/12/14 08:32:36;;;;;;;6.72;4.82;;;;;;;6.44;90.77;100234.63;5069549;28;20047;-81
2020/12/14 08:35:23;;;;;;;5.32;4.13;;;;;;;6.34;90.50;100224.72;5051851;28;20522;-80
2020/12/14 08:37:51;;;;;;;5.13;2.50;;;;;;;6.43;90.56;100217.47;5069444;28;20497;-80
2020/12/14 08:40:17;;;;;;;3.53;2.30;;;;;;;6.34;89.56;100209.31;5048611;28;20115;-80
2020/12/14 08:42:43;;;;;;;2.83;1.92;;;;;;;6.45;89.65;100226.13;5061619;28;20155;-80
2020/12/14 08:45:17;;;;;;;4.53;2.97;;;;;;;6.40;89.31;100228.44;5067004;28;20062;-81
2020/12/14 08:47:43;;;;;;;3.40;1.75;;;;;;;6.51;89.50;100226.44;5068979;28;20044;-81
2020/12/14 08:50:11;;;;;;;7.63;6.90;;;;;;;6.42;89.33;100220.84;5072839;28;20027;-80
2020/12/14 08:52:38;;;;;;;3.78;2.28;;;;;;;6.37;89.25;100238.56;5060525;28;20036;-80
2020/12/14 08:55:04;;;;;;;8.43;6.82;;;;;;;6.44;89.37;100232.06;5072423;28;20416;-80
2020/12/14 08:57:31;;;;;;;4.18;2.45;;;;;;;6.44;89.57;100234.63;5073172;28;20032;-80
2020/12/14 09:00:11;;;;;;;4.78;3.25;;;;;;;6.31;89.15;100202.38;5072683;28;20498;-80
2020/12/14 09:02:37;;;;;;;2.50;1.77;;;;;;;6.43;87.92;100220.03;5072752;28;20036;-81
2020/12/14 09:05:17;;;;;;;4.85;4.28;;;;;;;6.44;88.22;100232.94;5070444;28;20028;-80
2020/12/14 09:07:42;;;;;;;13.35;8.43;;;;;;;6.43;88.73;100231.19;5073123;28;20032;-80
2020/12/14 09:10:14;;;;;;;32.35;18.40;;;;;;;6.20;89.12;100201.81;5072377;28;20044;-80
2020/12/14 09:12:40;;;;;;;22.45;13.07;;;;;;;6.34;88.71;100235.84;5066578;28;20028;-79
2020/12/14 09:15:05;;;;;;;8.65;5.85;;;;;;;6.28;89.24;100212.44;5054159;28;20039;-80
2020/12/14 09:17:31;;;;;;;9.52;5.88;;;;;;;6.29;88.80;100232.16;5071218;28;20060;-78
2020/12/14 09:19:57;;;;;;;4.97;4.32;;;;;;;6.28;88.94;100227.84;5063155;28;20029;-77
2020/12/14 09:22:27;;;;;;;5.43;4.20;;;;;;;6.25;89.21;100218.31;5066572;28;20082;-79
2020/12/14 09:24:53;;;;;;;6.35;5.70;;;;;;;6.01;89.65;100184.66;5068043;28;20090;-78
2020/12/14 09:27:21;;;;;;;4.18;2.83;;;;;;;6.17;88.74;100209.38;5052500;28;20464;-80
2020/12/14 09:29:46;;;;;;;5.57;5.03;;;;;;;5.78;89.03;100142.44;5069167;28;20031;-79
2020/12/14 09:32:13;;;;;;;4.22;3.70;;;;;;;6.10;89.22;100209.84;5071345;28;20025;-77
2020/12/14 09:34:40;;;;;;;6.10;4.82;;;;;;;6.19;89.39;100222.25;5052313;28;20048;-78
2020/12/14 09:37:06;;;;;;;7.25;4.30;;;;;;;6.25;89.55;100223.44;5070071;28;20031;-76
2020/12/14 09:39:33;;;;;;;3.47;2.35;;;;;;;6.20;90.59;100217.19;5071046;28;20111;-78
2020/12/14 09:41:59;;;;;;;6.00;4.07;;;;;;;6.29;90.88;100215.13;5071276;28;20017;-78
2020/12/14 09:44:26;;;;;;;5.65;3.78;;;;;;;6.23;89.89;100193.41;5052388;28;20476;-82
2020/12/14 09:46:52;;;;;;;7.85;5.60;;;;;;;6.39;90.19;100210.44;5070262;28;20021;-82
2020/12/14 09:49:19;;;;;;;6.78;3.92;;;;;;;6.42;90.12;100202.91;5052652;28;20116;-79
2020/12/14 09:51:44;;;;;;;8.32;6.60;;;;;;;6.50;90.14;100210.97;5068978;28;20073;-81
2020/12/14 09:54:10;;;;;;;19.83;18.13;;;;;;;6.44;89.30;100197.06;5063195;28;20303;-80
2020/12/14 09:56:36;;;;;;;2.63;1.52;;;;;;;6.45;88.95;100200.47;5070071;28;20028;-80
2020/12/14 09:59:03;;;;;;;8.95;8.15;;;;;;;6.48;89.25;100206.63;5069885;28;20028;-80
2020/12/14 10:01:30;;;;;;;4.68;2.42;;;;;;;6.51;89.34;100192.22;5070376;28;20028;-81
2020/12/14 10:03:59;;;;;;;4.13;2.20;;;;;;;6.52;89.39;100193.94;5069924;28;20035;-79
2020/12/14 10:06:26;;;;;;;5.43;1.77;;;;;;;6.54;90.22;100187.22;5047324;28;20536;-80
2020/12/14 10:08:52;;;;;;;5.35;3.22;;;;;;;6.47;89.45;100178.38;5052132;28;20075;-80
2020/12/14 10:11:22;;;;;;;3.33;1.80;;;;;;;6.55;89.19;100200.13;5051833;28;20487;-81
2020/12/14 10:13:48;;;;;;;6.32;3.75;;;;;;;6.43;89.26;100186.69;5069818;28;20033;-80
2020/12/14 10:16:13;;;;;;;4.10;2.72;;;;;;;6.45;88.24;100191.09;5068441;28;20028;-80
2020/12/14 10:18:39;;;;;;;6.68;4.95;;;;;;;6.42;89.10;100188.38;5066220;28;20037;-80
2020/12/14 10:21:05;;;;;;;11.50;7.65;;;;;;;6.42;87.86;100179.84;5064211;28;20017;-80
2020/12/14 10:23:31;;;;;;;5.93;3.42;;;;;;;6.11;87.44;100139.88;5067223;28;20472;-81
2020/12/14 10:25:56;;;;;;;11.20;6.88;;;;;;;6.29;88.11;100199.72;5069928;28;20052;-79
2020/12/14 10:28:22;;;;;;;7.95;5.22;;;;;;;6.31;87.14;100197.25;5046464;28;20080;-80
2020/12/14 10:30:48;;;;;;;4.07;2.65;;;;;;;6.02;87.49;100155.66;5051356;28;20552;-80
2020/12/14 10:33:16;;;;;;;4.57;2.75;;;;;;;6.26;86.67;100194.44;5048373;28;20037;-79
2020/12/14 10:35:43;;;;;;;3.65;2.50;;;;;;;6.34;87.13;100197.38;5009620;28;20050;-79
2020/12/14 10:38:09;;;;;;;1.77;1.38;;;;;;;6.18;86.95;100180.38;5020825;28;20499;-81
2020/12/14 10:40:36;;;;;;;3.05;2.08;;;;;;;6.24;87.91;100195.16;4992267;28;20064;-80
2020/12/14 10:43:02;;;;;;;3.83;2.35;;;;;;;6.24;87.96;100190.94;4974453;28;20034;-78
2020/12/14 10:45:28;;;;;;;1.77;1.30;;;;;;;6.24;86.78;100198.63;5020802;28;20041;-82
2020/12/14 10:47:54;;;;;;;3.53;2.20;;;;;;;6.27;87.61;100201.34;5008326;28;20084;-78
2020/12/14 10:50:20;;;;;;;3.42;2.05;;;;;;;6.30;87.73;100191.22;5008749;28;20410;-78
2020/12/14 10:52:45;;;;;;;5.43;4.93;;;;;;;6.38;86.18;100203.53;5025260;28;20033;-77
2020/12/14 10:55:11;;;;;;;1.88;1.50;;;;;;;6.24;87.16;100193.50;5021933;28;20087;-77
2020/12/14 10:57:37;;;;;;;2.15;1.30;;;;;;;6.31;86.03;100207.50;5026417;28;20052;-79
2020/12/14 11:00:07;;;;;;;2.92;1.10;;;;;;;6.24;86.88;100208.00;5026308;28;20447;-78
2020/12/14 11:02:39;;;;;;;2.67;1.50;;;;;;;6.26;86.57;100211.53;5027450;28;20038;-78
2020/12/14 11:05:06;;;;;;;8.02;4.80;;;;;;;6.22;87.31;100207.00;5007867;28;20053;-79
2020/12/14 11:07:32;;;;;;;6.25;3.13;;;;;;;6.10;86.81;100189.34;5007891;28;20120;-78
2020/12/14 11:09:59;;;;;;;7.32;6.65;;;;;;;6.22;87.18;100209.56;5009502;28;20034;-78
2020/12/14 11:12:25;;;;;;;2.67;1.40;;;;;;;6.20;87.64;100201.81;5026545;28;20094;-77
2020/12/14 11:14:51;;;;;;;5.25;4.05;;;;;;;6.24;87.26;100215.69;5086997;28;20055;-79
2020/12/14 11:17:16;;;;;;;2.97;1.60;;;;;;;6.18;87.72;100215.38;5091319;28;20522;-77
2020/12/14 11:19:42;;;;;;;7.57;6.15;;;;;;;6.18;86.44;100206.00;5085505;28;20025;-76
2020/12/14 11:22:07;;;;;;;1.65;1.10;;;;;;;6.18;86.94;100225.63;5070621;28;20058;-77
2020/12/14 11:24:33;;;;;;;1.45;1.10;;;;;;;6.09;86.58;100215.78;5069987;28;20117;-78
2020/12/14 11:26:58;;;;;;;1.70;1.30;;;;;;;6.00;87.63;100208.50;5070668;28;20024;-78
2020/12/14 11:29:25;;;;;;;1.95;1.40;;;;;;;6.07;87.73;100212.25;5070154;28;20033;-77
2020/12/14 11:31:51;;;;;;;1.77;1.45;;;;;;;6.04;87.17;100206.97;5052327;28;20031;-77
2020/12/14 11:34:17;;;;;;;3.67;2.20;;;;;;;6.04;86.89;100219.81;5070449;28;20135;-78
2020/12/14 11:36:42;;;;;;;3.00;1.85;;;;;;;5.96;87.77;100204.00;5070583;28;20021;-77